Time;durP1;ratioP1;P1;durP2;ratioP2;P2;SDS_P1;SDS_P2;PMS_P1;PMS_P2;Temp;Humidity;BMP_temperature;BMP_pressure;BME280_temperature;BME280_humidity;BME280_pressure;Samples;Min_cycle;Max_cycle;Signal;HPM_P1;HPM_P2
2022/08/07 00:01:57;;;;;;;4.70;3.33;;;30.80;29.00;;;;;;21252404;27;20083;-57
2022/08/07 00:11:58;;;;;;;4.10;2.90;;;30.80;29.00;;;;;;21252232;27;20074;-58
2022/08/07 00:22:00;;;;;;;9.10;2.60;;;30.60;29.20;;;;;;21250724;27;20047;-59
2022/08/07 00:32:02;;;;;;;6.95;3.95;;;30.60;30.00;;;;;;21250207;27;20043;-56
2022/08/07 00:42:04;;;;;;;8.77;3.78;;;30.50;31.20;;;;;;21249182;27;20096;-56
2022/08/07 00:52:07;;;;;;;6.43;2.67;;;30.50;32.50;;;;;;21248858;27;20043;-56
2022/08/07 01:02:10;;;;;;;5.13;2.22;;;30.30;33.10;;;;;;21248647;27;20051;-56
2022/08/07 01:12:14;;;;;;;6.13;2.20;;;30.20;33.30;;;;;;21248121;28;20050;-58
2022/08/07 01:22:17;;;;;;;2.55;2.13;;;30.20;33.60;;;;;;21262111;27;20087;-56
2022/08/07 01:32:23;;;;;;;3.58;2.65;;;30.10;34.10;;;;;;21265190;27;20047;-56
2022/08/07 01:42:28;;;;;;;7.28;2.70;;;30.00;34.20;;;;;;21204288;27;20112;-57
2022/08/07 01:52:37;;;;;;;6.20;3.13;;;30.00;34.50;;;;;;21177587;28;20047;-58
2022/08/07 02:03:01;;;;;;;2.88;2.13;;;29.90;34.70;;;;;;21177017;28;20090;-58
2022/08/07 02:13:17;;;;;;;4.43;2.00;;;29.70;34.80;;;;;;21176375;28;20044;-58
2022/08/07 02:23:25;;;;;;;3.50;2.22;;;29.50;34.70;;;;;;21174981;28;20104;-58
2022/08/07 02:33:33;;;;;;;6.40;2.20;;;29.40;34.70;;;;;;21173796;28;20056;-57
2022/08/07 02:43:39;;;;;;;6.97;5.25;;;29.30;34.60;;;;;;21242166;27;20054;-57
2022/08/07 02:53:45;;;;;;;3.33;2.03;;;29.20;34.90;;;;;;21257735;27;20055;-58
2022/08/07 03:03:50;;;;;;;5.25;2.20;;;29.20;35.00;;;;;;21257561;27;20076;-58
2022/08/07 03:13:52;;;;;;;3.45;2.30;;;29.10;35.20;;;;;;21238204;27;20054;-57
2022/08/07 03:23:56;;;;;;;6.03;2.40;;;29.00;35.50;;;;;;21255423;27;20050;-56
2022/08/07 03:34:01;;;;;;;4.60;2.10;;;28.90;35.70;;;;;;21255303;27;20130;-57
2022/08/07 03:44:04;;;;;;;6.45;2.38;;;28.80;35.90;;;;;;21253284;27;20538;-56
2022/08/07 03:54:06;;;;;;;5.10;2.72;;;28.70;37.80;;;;;;21253052;27;20130;-54
2022/08/07 04:04:09;;;;;;;6.03;2.53;;;28.50;39.20;;;;;;21234177;27;20103;-54
2022/08/07 04:14:12;;;;;;;3.92;2.58;;;28.40;39.60;;;;;;21251171;27;20134;-55
2022/08/07 04:24:15;;;;;;;5.65;2.50;;;28.30;39.70;;;;;;21250860;27;20122;-58
2022/08/07 04:34:17;;;;;;;3.17;2.38;;;28.30;40.50;;;;;;21249703;27;20043;-55
2022/08/07 04:44:19;;;;;;;7.18;2.75;;;28.10;40.40;;;;;;21249652;27;20055;-59
2022/08/07 04:54:38;;;;;;;4.75;2.95;;;28.00;40.60;;;;;;21248626;27;20092;-58
2022/08/07 05:04:57;;;;;;;3.95;2.47;;;28.00;41.00;;;;;;21248967;27;20051;-58
2022/08/07 05:15:30;;;;;;;5.13;2.90;;;27.90;41.50;;;;;;21248191;28;20082;-58
2022/08/07 05:25:33;;;;;;;5.20;2.63;;;27.80;41.30;;;;;;21246908;28;20547;-57
2022/08/07 05:35:35;;;;;;;5.80;2.50;;;27.70;42.40;;;;;;21247219;28;20126;-57
2022/08/07 05:45:40;;;;;;;5.38;3.00;;;27.60;42.90;;;;;;21246364;28;20054;-57
2022/08/07 05:55:42;;;;;;;5.80;2.75;;;27.60;43.10;;;;;;21246307;28;20053;-55
2022/08/07 06:05:46;;;;;;;4.53;2.55;;;27.50;43.10;;;;;;21255380;27;20047;-59
2022/08/07 06:15:53;;;;;;;5.72;2.70;;;27.50;43.10;;;;;;21261004;27;20051;-58
2022/08/07 06:25:56;;;;;;;3.03;2.70;;;27.50;42.90;;;;;;21260305;27;20402;-58
2022/08/07 06:35:58;;;;;;;5.78;2.95;;;27.40;42.90;;;;;;21259607;27;20134;-58
2022/08/07 06:46:01;;;;;;;5.68;2.58;;;27.50;42.10;;;;;;21258591;27;20043;-56
2022/08/07 06:56:05;;;;;;;5.85;2.40;;;27.90;40.90;;;;;;21259974;27;20050;-58
2022/08/07 07:06:08;;;;;;;3.67;2.55;;;28.30;40.20;;;;;;21239201;27;20391;-59
2022/08/07 07:16:19;;;;;;;6.30;2.80;;;28.70;38.70;;;;;;21255075;27;20047;-54
2022/08/07 07:26:22;;;;;;;9.90;3.83;;;28.90;38.40;;;;;;21255112;27;20180;-58
2022/08/07 07:36:26;;;;;;;4.90;2.80;;;29.20;37.80;;;;;;21253910;27;20063;-56
2022/08/07 07:46:34;;;;;;;57.13;10.52;;;29.30;37.60;;;;;;21254390;27;20122;-58
2022/08/07 07:56:38;;;;;;;7.65;2.88;;;29.40;37.50;;;;;;21253635;27;20043;-57
2022/08/07 08:06:43;;;;;;;3.50;2.30;;;29.90;36.60;;;;;;21251824;27;20491;-58
2022/08/07 08:16:45;;;;;;;7.00;2.67;;;30.00;35.90;;;;;;21251316;27;20057;-55
2022/08/07 08:27:04;;;;;;;4.13;2.60;;;30.10;35.50;;;;;;21250665;27;20151;-54
2022/08/07 08:37:08;;;;;;;5.88;2.92;;;30.30;34.10;;;;;;21249639;27;20047;-57
2022/08/07 08:47:21;;;;;;;5.82;3.38;;;30.70;32.50;;;;;;21249676;27;20093;-56
2022/08/07 08:57:45;;;;;;;7.35;4.00;;;30.70;32.00;;;;;;21249349;27;20540;-57
2022/08/07 09:08:01;;;;;;;9.48;4.00;;;30.90;31.10;;;;;;21248300;27;20046;-57
2022/08/07 09:18:24;;;;;;;6.60;3.53;;;31.20;30.20;;;;;;21247661;28;20051;-60
2022/08/07 09:28:52;;;;;;;9.50;4.10;;;31.20;29.80;;;;;;21249090;28;20047;-59
2022/08/07 09:39:02;;;;;;;9.13;4.10;;;31.60;29.10;;;;;;21253997;27;20055;-56
2022/08/07 09:49:29;;;;;;;7.07;3.58;;;31.60;28.70;;;;;;21264832;27;20065;-58
2022/08/07 09:59:34;;;;;;;5.70;3.58;;;31.70;27.90;;;;;;21262266;27;20054;-54
2022/08/07 10:09:41;;;;;;;5.22;3.25;;;32.00;27.60;;;;;;21261745;27;20051;-55
2022/08/07 10:19:55;;;;;;;5.43;4.35;;;31.80;27.70;;;;;;21261159;27;20047;-55
2022/08/07 10:29:58;;;;;;;5.75;4.13;;;32.00;27.10;;;;;;21261054;27;20047;-58
2022/08/07 10:40:16;;;;;;;3.42;3.03;;;32.20;26.80;;;;;;21259460;27;20122;-54
2022/08/07 10:50:44;;;;;;;7.68;3.10;;;32.50;27.20;;;;;;21258874;27;20051;-58
2022/08/07 11:01:02;;;;;;;6.55;3.35;;;32.60;27.20;;;;;;21240729;27;20116;-57
2022/08/07 11:11:09;;;;;;;6.97;3.40;;;32.60;27.50;;;;;;21257027;27;20130;-55
2022/08/07 11:21:36;;;;;;;5.88;3.10;;;33.10;27.10;;;;;;21257290;27;20051;-60
2022/08/07 11:31:48;;;;;;;6.72;3.10;;;33.10;27.30;;;;;;21256169;27;20039;-55
2022/08/07 11:42:01;;;;;;;7.78;3.00;;;33.50;25.50;;;;;;21254569;27;20499;-56
2022/08/07 11:52:27;;;;;;;5.45;2.92;;;33.60;25.10;;;;;;21253887;27;20054;-59
2022/08/07 12:03:02;;;;;;;6.10;3.00;;;33.70;24.60;;;;;;21242866;27;20051;-55
2022/08/07 12:13:11;;;;;;;3.70;2.10;;;34.00;24.10;;;;;;21252067;27;20096;-56
2022/08/07 12:23:32;;;;;;;;;;;34.20;20.70;;;;;;21252429;27;20051;-56
2022/08/07 12:33:35;;;;;;;5.65;2.63;;;34.50;21.00;;;;;;21250695;27;19923;-56
2022/08/07 12:43:38;;;;;;;4.10;2.58;;;34.50;21.90;;;;;;21180903;27;20055;-58
2022/08/07 12:53:48;;;;;;;6.13;2.50;;;34.80;21.90;;;;;;21165293;28;20046;-56
2022/08/07 13:04:28;;;;;;;5.28;2.65;;;35.00;22.10;;;;;;21163951;28;20090;-55
2022/08/07 13:14:55;;;;;;;4.72;1.95;;;35.00;22.00;;;;;;21161699;28;20051;-55
2022/08/07 13:25:05;;;;;;;4.45;2.30;;;35.10;22.00;;;;;;21163361;28;20075;-55
2022/08/07 13:35:30;;;;;;;7.20;2.00;;;35.10;22.60;;;;;;21153312;28;20051;-57
2022/08/07 13:45:34;;;;;;;7.97;5.22;;;35.10;21.60;;;;;;21246281;28;20079;-56
2022/08/07 13:55:40;;;;;;;8.68;2.88;;;35.30;21.60;;;;;;21246240;28;20047;-57
2022/08/07 14:05:45;;;;;;;6.68;4.40;;;35.60;21.20;;;;;;21246459;28;20075;-57
2022/08/07 14:15:55;;;;;;;5.68;2.75;;;35.50;21.50;;;;;;21226412;28;20130;-57
2022/08/07 14:26:04;;;;;;;10.15;7.68;;;35.50;20.70;;;;;;21253571;27;20080;-56
2022/08/07 14:36:08;;;;;;;6.80;3.50;;;35.50;21.00;;;;;;21259181;27;20087;-58
2022/08/07 14:46:10;;;;;;;4.70;2.67;;;35.50;20.80;;;;;;21258715;27;20448;-58
2022/08/07 14:56:14;;;;;;;3.00;2.10;;;35.60;20.70;;;;;;21257653;27;20511;-58
2022/08/07 15:06:22;;;;;;;5.55;2.58;;;35.80;20.40;;;;;;21259043;27;20062;-55
2022/08/07 15:16:37;;;;;;;5.65;2.47;;;35.80;20.40;;;;;;21257112;27;20485;-59
2022/08/07 15:26:50;;;;;;;5.18;3.45;;;35.70;20.10;;;;;;21256066;27;20049;-57
2022/08/07 15:36:55;;;;;;;4.20;2.33;;;35.80;20.30;;;;;;21237687;27;20460;-58
2022/08/07 15:47:03;;;;;;;4.28;2.67;;;35.80;19.70;;;;;;21254223;27;20043;-59
2022/08/07 15:57:06;;;;;;;;;;;35.70;19.70;;;;;;21253091;27;20051;-58
2022/08/07 16:07:11;;;;;;;8.45;3.40;;;35.60;20.30;;;;;;21252093;27;19920;-57
2022/08/07 16:17:18;;;;;;;6.45;3.05;;;35.70;20.10;;;;;;21251230;27;20079;-58
2022/08/07 16:27:40;;;;;;;9.75;8.38;;;35.60;20.00;;;;;;21252571;27;20560;-58
2022/08/07 16:37:52;;;;;;;4.03;3.22;;;35.70;20.10;;;;;;21252703;27;20487;-57
2022/08/07 16:48:17;;;;;;;7.68;3.85;;;35.50;19.80;;;;;;21249662;27;20043;-57
2022/08/07 16:58:41;;;;;;;4.78;2.63;;;35.40;20.00;;;;;;21239198;27;20487;-57
2022/08/07 17:09:13;;;;;;;8.20;5.50;;;35.50;20.50;;;;;;21250435;27;20066;-64
2022/08/07 17:19:31;;;;;;;5.60;2.65;;;35.60;19.30;;;;;;21247617;28;20457;-58
2022/08/07 17:30:05;;;;;;;4.80;2.57;;;35.50;18.90;;;;;;21246970;28;20047;-57
2022/08/07 17:40:33;;;;;;;5.43;3.13;;;35.30;18.90;;;;;;21238948;28;20481;-58
2022/08/07 17:50:37;;;;;;;4.70;2.40;;;35.20;18.60;;;;;;21245913;28;20446;-58
2022/08/07 18:00:44;;;;;;;5.60;2.75;;;35.10;18.60;;;;;;21253071;27;20551;-56
2022/08/07 18:11:07;;;;;;;7.03;3.22;;;35.00;18.70;;;;;;21261487;27;20486;-57
2022/08/07 18:21:33;;;;;;;4.32;2.65;;;35.00;19.60;;;;;;21260564;27;20096;-57
2022/08/07 18:32:16;;;;;;;4.03;2.40;;;34.80;19.10;;;;;;21260578;27;20047;-57
2022/08/07 18:42:42;;;;;;;6.28;3.42;;;34.70;17.90;;;;;;20914491;28;20091;-58
2022/08/07 18:53:00;;;;;;;4.32;2.35;;;34.60;18.40;;;;;;20914157;28;20391;-57
2022/08/07 19:03:13;;;;;;;4.82;2.60;;;34.50;18.40;;;;;;20912281;28;20053;-57
2022/08/07 19:13:36;;;;;;;6.93;3.20;;;34.30;19.00;;;;;;21028284;27;20134;-59
2022/08/07 19:23:41;;;;;;;5.70;3.25;;;34.20;18.10;;;;;;21237955;27;20051;-57
2022/08/07 19:33:47;;;;;;;5.28;3.13;;;34.00;18.30;;;;;;21255471;27;20043;-57
2022/08/07 19:43:52;;;;;;;7.07;3.67;;;33.80;19.10;;;;;;21254870;27;20579;-57
2022/08/07 19:53:56;;;;;;;10.07;4.32;;;33.60;19.30;;;;;;21253995;27;20055;-56
2022/08/07 20:04:00;;;;;;;7.10;4.13;;;33.50;19.60;;;;;;21253700;27;20422;-56
2022/08/07 20:14:03;;;;;;;12.55;5.55;;;33.30;19.70;;;;;;21252630;27;20043;-55
2022/08/07 20:24:13;;;;;;;10.52;5.20;;;33.20;20.40;;;;;;21251880;27;20138;-56
2022/08/07 20:34:18;;;;;;;6.65;3.90;;;33.00;20.20;;;;;;21250051;27;20384;-55
2022/08/07 20:44:30;;;;;;;7.68;4.70;;;32.70;20.50;;;;;;21249526;27;20086;-58
2022/08/07 20:54:32;;;;;;;9.98;5.30;;;32.60;20.70;;;;;;21248496;27;20057;-56
2022/08/07 21:04:35;;;;;;;9.63;6.50;;;32.50;21.10;;;;;;21248662;27;20405;-57
2022/08/07 21:14:40;;;;;;;9.40;5.70;;;32.30;21.50;;;;;;21248622;27;20047;-57
2022/08/07 21:24:45;;;;;;;11.85;5.97;;;32.20;22.00;;;;;;21246989;28;20049;-56
2022/08/07 21:35:14;;;;;;;11.10;7.15;;;32.10;22.00;;;;;;21253862;27;20050;-56
2022/08/07 21:45:40;;;;;;;8.25;5.38;;;32.00;22.10;;;;;;21263542;27;20059;-58
2022/08/07 21:56:10;;;;;;;11.07;5.68;;;31.80;22.40;;;;;;21263145;27;20184;-56
2022/08/07 22:06:25;;;;;;;13.50;8.27;;;31.60;23.20;;;;;;20917711;28;20508;-56
2022/08/07 22:16:55;;;;;;;13.70;7.90;;;31.50;23.70;;;;;;20916667;28;20613;-57
2022/08/07 22:27:16;;;;;;;7.95;4.43;;;31.40;24.90;;;;;;20907536;28;20052;-57
2022/08/07 22:37:36;;;;;;;;;;;30.90;25.50;;;;;;21016232;27;20051;-56
2022/08/07 22:48:05;;;;;;;7.73;4.70;;;30.50;26.00;;;;;;21258842;27;19930;-58
2022/08/07 22:58:47;;;;;;;6.28;4.65;;;30.10;25.70;;;;;;21258199;27;20062;-56
2022/08/07 23:09:10;;;;;;;10.15;5.72;;;30.00;25.50;;;;;;21258625;27;20055;-56
2022/08/07 23:30:04;;;;;;;8.93;4.63;;;29.40;26.40;;;;;;21256390;27;20050;-57
2022/08/07 23:40:09;;;;;;;6.75;4.45;;;29.30;26.70;;;;;;21255136;27;20043;-55
2022/08/07 23:50:13;;;;;;;9.13;4.90;;;29.10;27.30;;;;;;21255545;27;20398;-57
